createdAt,value
2022-09-02T00:00:13.678Z,100.00
2022-09-02T00:02:43.262Z,100.00
2022-09-02T00:05:12.655Z,100.00
2022-09-02T00:07:41.408Z,100.00
2022-09-02T00:10:11.757Z,100.00
2022-09-02T00:12:40.325Z,100.00
2022-09-02T00:15:10.226Z,100.00
2022-09-02T00:17:38.651Z,100.00
2022-09-02T00:20:11.802Z,100.00
2022-09-02T00:22:40.352Z,100.00
2022-09-02T00:25:11.510Z,100.00
2022-09-02T00:27:40.000Z,100.00
2022-09-02T00:30:14.616Z,100.00
2022-09-02T00:32:43.493Z,100.00
2022-09-02T00:35:12.749Z,100.00
2022-09-02T00:37:41.421Z,100.00
2022-09-02T00:40:13.813Z,100.00
2022-09-02T00:42:42.664Z,100.00
2022-09-02T00:45:13.097Z,100.00
2022-09-02T00:47:42.493Z,100.00
2022-09-02T00:50:17.635Z,100.00
2022-09-02T00:52:52.027Z,100.00
2022-09-02T00:55:26.076Z,100.00
2022-09-02T00:58:01.565Z,100.00
2022-09-02T01:00:35.682Z,100.00
2022-09-02T01:05:24.393Z,100.00
2022-09-02T01:07:53.756Z,100.00
2022-09-02T01:10:28.045Z,100.00
2022-09-02T01:12:58.092Z,100.00
2022-09-02T01:15:28.205Z,100.00
2022-09-02T01:17:58.908Z,100.00
2022-09-02T01:20:30.000Z,100.00
2022-09-02T01:23:00.659Z,100.00
2022-09-02T01:25:33.547Z,100.00
2022-09-02T01:28:06.022Z,100.00
2022-09-02T01:30:37.226Z,100.00
2022-09-02T01:33:06.041Z,100.00
2022-09-02T01:35:34.812Z,100.00
2022-09-02T01:38:05.836Z,100.00
2022-09-02T01:40:34.862Z,100.00
2022-09-02T01:43:08.361Z,100.00
2022-09-02T01:45:38.705Z,100.00
2022-09-02T01:48:09.737Z,100.00
2022-09-02T01:50:46.689Z,100.00
2022-09-02T01:53:17.743Z,100.00
2022-09-02T01:55:47.258Z,100.00
2022-09-02T01:58:16.357Z,100.00
2022-09-02T02:00:45.210Z,100.00
2022-09-02T02:03:14.948Z,100.00
2022-09-02T02:05:43.732Z,100.00
2022-09-02T02:08:12.294Z,100.00
2022-09-02T02:10:44.915Z,100.00
2022-09-02T02:13:13.857Z,100.00
2022-09-02T02:15:44.885Z,100.00
2022-09-02T02:18:17.421Z,100.00
2022-09-02T02:20:45.996Z,100.00
2022-09-02T02:23:15.030Z,100.00
2022-09-02T02:25:45.148Z,100.00
2022-09-02T02:28:14.834Z,100.00
2022-09-02T02:30:43.456Z,100.00
2022-09-02T02:33:12.102Z,100.00
2022-09-02T02:35:40.915Z,100.00
2022-09-02T02:38:10.394Z,100.00
2022-09-02T02:40:44.667Z,100.00
2022-09-02T02:43:13.491Z,100.00
2022-09-02T02:45:42.030Z,100.00
2022-09-02T02:48:10.497Z,100.00
2022-09-02T02:50:39.440Z,100.00
2022-09-02T02:53:08.143Z,100.00
2022-09-02T02:55:37.028Z,100.00
2022-09-02T02:58:08.386Z,100.00
2022-09-02T03:00:38.180Z,100.00
2022-09-02T03:05:21.500Z,100.00
2022-09-02T03:07:50.110Z,100.00
2022-09-02T03:10:20.034Z,100.00
2022-09-02T03:12:48.910Z,100.00
2022-09-02T03:15:20.982Z,100.00
2022-09-02T03:17:50.208Z,100.00
2022-09-02T03:20:21.370Z,100.00
2022-09-02T03:22:51.587Z,100.00
2022-09-02T03:25:22.737Z,100.00
2022-09-02T03:27:54.184Z,100.00
2022-09-02T03:30:27.626Z,100.00
2022-09-02T03:33:03.892Z,100.00
2022-09-02T03:35:39.050Z,100.00
2022-09-02T03:38:07.864Z,100.00
2022-09-02T03:40:37.377Z,100.00
2022-09-02T03:43:06.172Z,100.00
2022-09-02T03:45:34.989Z,100.00
2022-09-02T03:48:04.806Z,100.00
2022-09-02T03:50:41.099Z,100.00
2022-09-02T03:53:16.355Z,100.00
2022-09-02T03:55:49.475Z,100.00
2022-09-02T03:58:19.521Z,100.00
2022-09-02T04:00:53.217Z,100.00
2022-09-02T04:03:22.734Z,100.00
2022-09-02T04:05:53.516Z,100.00
2022-09-02T04:08:22.376Z,100.00
2022-09-02T04:10:51.404Z,100.00
2022-09-02T04:13:20.928Z,100.00
2022-09-02T04:15:49.895Z,100.00
2022-09-02T04:18:19.694Z,100.00
2022-09-02T04:20:48.229Z,100.00
2022-09-02T04:23:21.394Z,100.00
2022-09-02T04:25:49.996Z,100.00
2022-09-02T04:28:18.625Z,100.00
2022-09-02T04:30:47.291Z,100.00
2022-09-02T04:33:15.842Z,100.00
2022-09-02T04:35:48.625Z,100.00
2022-09-02T04:38:19.294Z,100.00
2022-09-02T04:40:49.648Z,100.00
2022-09-02T04:43:18.331Z,100.00
2022-09-02T04:45:47.970Z,100.00
2022-09-02T04:48:19.319Z,100.00
2022-09-02T04:50:49.158Z,100.00
2022-09-02T04:53:19.417Z,100.00
2022-09-02T04:55:48.152Z,100.00
2022-09-02T04:58:17.228Z,100.00
2022-09-02T05:00:45.777Z,100.00
2022-09-02T05:05:21.676Z,100.00
2022-09-02T05:07:50.579Z,100.00
2022-09-02T05:10:22.645Z,100.00
2022-09-02T05:12:53.876Z,100.00
2022-09-02T05:15:22.675Z,100.00
2022-09-02T05:17:52.938Z,100.00
2022-09-02T05:20:23.455Z,100.00
2022-09-02T05:22:52.310Z,100.00
2022-09-02T05:25:21.793Z,100.00
2022-09-02T05:27:55.994Z,100.00
2022-09-02T05:30:24.891Z,100.00
2022-09-02T05:32:53.456Z,100.00
2022-09-02T05:35:24.058Z,100.00
2022-09-02T05:37:54.508Z,100.00
2022-09-02T05:40:26.717Z,100.00
2022-09-02T05:42:57.969Z,100.00
2022-09-02T05:45:27.814Z,100.00
2022-09-02T05:47:57.436Z,100.00
2022-09-02T05:50:29.841Z,100.00
2022-09-02T05:53:03.892Z,100.00
2022-09-02T05:55:32.758Z,100.00
2022-09-02T05:58:01.298Z,100.00
2022-09-02T06:00:30.528Z,100.00
2022-09-02T06:02:59.298Z,100.00
2022-09-02T06:05:30.234Z,100.00
2022-09-02T06:07:58.831Z,100.00
2022-09-02T06:10:27.569Z,100.00
2022-09-02T06:12:56.273Z,100.00
2022-09-02T06:15:27.799Z,100.00
2022-09-02T06:17:59.588Z,100.00
2022-09-02T06:20:32.685Z,100.00
2022-09-02T06:23:01.492Z,100.00
2022-09-02T06:25:30.119Z,100.00
2022-09-02T06:27:58.743Z,100.00
2022-09-02T06:30:27.881Z,100.00
2022-09-02T06:32:56.466Z,100.00
2022-09-02T06:35:26.357Z,100.00
2022-09-02T06:37:56.301Z,100.00
2022-09-02T06:40:25.020Z,100.00
2022-09-02T06:42:54.428Z,100.00
2022-09-02T06:45:24.395Z,100.00
2022-09-02T06:47:54.523Z,100.00
2022-09-02T06:50:23.396Z,100.00
2022-09-02T06:52:52.535Z,100.00
2022-09-02T06:55:22.653Z,100.00
2022-09-02T06:57:51.440Z,100.00
2022-09-02T07:00:21.129Z,90.04
2022-09-02T07:05:21.766Z,73.34
2022-09-02T07:07:55.507Z,65.02
2022-09-02T07:10:24.470Z,62.97
2022-09-02T07:12:53.755Z,61.58
2022-09-02T07:15:22.619Z,59.13
2022-09-02T07:17:52.424Z,58.91
2022-09-02T07:20:22.830Z,58.01
2022-09-02T07:25:25.133Z,54.53
2022-09-02T07:27:54.720Z,53.76
2022-09-02T07:30:24.145Z,52.61
2022-09-02T07:32:52.731Z,51.19
2022-09-02T07:35:23.067Z,50.58
2022-09-02T07:37:51.698Z,50.32
2022-09-02T07:40:20.941Z,49.79
2022-09-02T07:42:50.477Z,49.38
2022-09-02T07:45:20.110Z,48.92
2022-09-02T07:47:49.835Z,49.38
2022-09-02T07:50:20.770Z,48.88
2022-09-02T07:52:51.458Z,47.80
2022-09-02T07:55:20.003Z,47.14
2022-09-02T07:57:48.694Z,46.50
2022-09-02T08:00:19.945Z,44.96
2022-09-02T08:02:51.494Z,45.27
2022-09-02T08:05:20.761Z,43.55
2022-09-02T08:07:50.922Z,43.34
2022-09-02T08:10:20.832Z,43.84
2022-09-02T08:12:50.076Z,42.40
2022-09-02T08:15:20.126Z,42.02
2022-09-02T08:17:50.377Z,41.19
2022-09-02T08:20:19.637Z,40.77
2022-09-02T08:22:54.661Z,40.88
2022-09-02T08:25:37.041Z,41.19
2022-09-02T08:28:05.885Z,39.38
2022-09-02T08:30:35.118Z,38.31
2022-09-02T08:33:03.587Z,37.57
2022-09-02T08:35:32.635Z,38.83
2022-09-02T08:38:01.802Z,38.03
2022-09-02T08:40:38.848Z,38.65
2022-09-02T08:43:29.327Z,38.37
2022-09-02T08:46:05.558Z,39.34
2022-09-02T08:48:41.819Z,39.34
2022-09-02T08:51:17.568Z,38.18
2022-09-02T08:53:53.391Z,36.83
2022-09-02T08:56:23.340Z,35.60
2022-09-02T08:58:56.639Z,35.43
2022-09-02T09:01:40.790Z,36.31
2022-09-02T09:05:35.120Z,37.99
2022-09-02T09:08:21.875Z,37.52
2022-09-02T09:11:03.004Z,36.98
2022-09-02T09:14:11.135Z,36.12
2022-09-02T09:16:54.748Z,35.07
2022-09-02T09:19:38.192Z,35.39
2022-09-02T09:22:08.517Z,34.90
2022-09-02T09:24:42.105Z,34.44
2022-09-02T09:27:17.061Z,33.96
2022-09-02T09:29:46.221Z,33.74
2022-09-02T09:32:26.978Z,34.52
2022-09-02T09:35:07.331Z,34.27
2022-09-02T09:37:41.041Z,33.25
2022-09-02T09:40:33.063Z,33.37
2022-09-02T09:43:16.160Z,32.00
2022-09-02T09:45:47.428Z,32.74
2022-09-02T09:48:27.710Z,33.93
2022-09-02T09:51:16.075Z,33.17
2022-09-02T09:53:47.118Z,34.17
2022-09-02T09:56:37.612Z,34.21
2022-09-02T09:59:31.282Z,34.84
2022-09-02T10:02:00.143Z,35.42
2022-09-02T10:04:49.501Z,35.44
2022-09-02T10:07:38.959Z,34.53
2022-09-02T10:10:19.986Z,34.69
2022-09-02T10:12:52.660Z,35.15
2022-09-02T10:15:35.881Z,35.28
2022-09-02T10:18:24.932Z,34.74
2022-09-02T10:21:15.866Z,34.90
2022-09-02T10:24:04.351Z,35.73
2022-09-02T10:26:44.202Z,34.82
2022-09-02T10:29:56.251Z,34.95
2022-09-02T10:32:43.678Z,35.56
2022-09-02T10:35:22.903Z,36.04
2022-09-02T10:38:11.679Z,35.66
2022-09-02T10:40:50.830Z,35.17
2022-09-02T10:43:48.095Z,35.93
2022-09-02T10:46:27.660Z,35.42
2022-09-02T10:49:10.848Z,35.17
2022-09-02T10:51:57.629Z,35.26
2022-09-02T10:54:48.280Z,35.91
2022-09-02T10:57:22.293Z,36.16
2022-09-02T11:00:14.097Z,35.12
2022-09-02T11:05:28.178Z,37.79
2022-09-02T11:08:04.926Z,37.58
2022-09-02T11:10:42.605Z,36.99
2022-09-02T11:13:23.353Z,37.96
2022-09-02T11:16:03.207Z,36.94
2022-09-02T11:18:43.809Z,37.70
2022-09-02T11:21:35.649Z,37.63
2022-09-02T11:24:11.746Z,36.78
2022-09-02T11:26:47.673Z,37.17
2022-09-02T11:29:22.605Z,36.35
2022-09-02T11:32:06.873Z,36.93
2022-09-02T11:34:45.985Z,36.04
2022-09-02T11:37:32.252Z,36.68
2022-09-02T11:40:30.474Z,37.70
2022-09-02T11:43:33.272Z,37.63
2022-09-02T11:46:45.203Z,36.67
2022-09-02T11:50:06.782Z,36.37
2022-09-02T11:53:02.876Z,36.37
2022-09-02T11:55:38.635Z,36.74
2022-09-02T11:58:07.163Z,35.88
2022-09-02T12:00:58.595Z,35.97
2022-09-02T12:03:55.984Z,36.18
2022-09-02T12:06:22.457Z,35.25
2022-09-02T12:09:13.520Z,36.16
2022-09-02T12:11:51.124Z,35.71
2022-09-02T12:15:11.663Z,35.59
2022-09-02T12:17:55.307Z,36.21
2022-09-02T12:21:16.288Z,35.77
2022-09-02T12:24:12.804Z,36.30
2022-09-02T12:27:26.113Z,34.50
2022-09-02T12:29:56.410Z,34.93
2022-09-02T12:33:14.564Z,34.77
2022-09-02T12:35:57.684Z,34.51
2022-09-02T12:38:40.850Z,34.31
2022-09-02T12:41:27.805Z,33.66
2022-09-02T12:44:27.869Z,34.27
2022-09-02T12:47:13.882Z,33.92
2022-09-02T12:49:53.947Z,34.06
2022-09-02T12:52:50.751Z,33.82
2022-09-02T12:55:31.048Z,34.19
2022-09-02T12:58:11.103Z,33.78
2022-09-02T13:00:58.896Z,33.13
2022-09-02T13:05:32.784Z,33.98
2022-09-02T13:08:38.407Z,34.28
2022-09-02T13:12:01.010Z,34.05
2022-09-02T13:14:56.392Z,33.54
2022-09-02T13:17:48.005Z,33.03
2022-09-02T13:20:53.712Z,32.70
2022-09-02T13:24:13.393Z,33.07
2022-09-02T13:27:33.959Z,32.60
2022-09-02T13:30:20.242Z,32.70
2022-09-02T13:33:01.227Z,31.89
2022-09-02T13:35:30.426Z,33.23
2022-09-02T13:38:02.866Z,32.82
2022-09-02T13:40:33.918Z,32.55
2022-09-02T13:43:05.222Z,33.06
2022-09-02T13:45:36.989Z,33.53
2022-09-02T13:48:12.432Z,33.28
2022-09-02T13:50:46.879Z,32.38
2022-09-02T13:53:53.797Z,32.91
2022-09-02T13:56:30.733Z,32.51
2022-09-02T13:58:59.490Z,32.61
2022-09-02T14:01:33.178Z,32.54
2022-09-02T14:04:07.576Z,32.03
2022-09-02T14:06:43.917Z,32.11
2022-09-02T14:09:26.499Z,32.65
2022-09-02T14:11:56.978Z,32.69
2022-09-02T14:14:27.226Z,32.93
2022-09-02T14:17:20.562Z,32.72
2022-09-02T14:19:49.839Z,31.89
2022-09-02T14:22:27.719Z,33.02
2022-09-02T14:24:58.489Z,33.17
2022-09-02T14:27:27.493Z,33.53
2022-09-02T14:29:59.703Z,33.91
2022-09-02T14:32:29.746Z,33.94
2022-09-02T14:35:22.774Z,33.33
2022-09-02T14:37:57.821Z,33.25
2022-09-02T14:40:38.758Z,32.88
2022-09-02T14:43:15.376Z,32.45
2022-09-02T14:45:50.969Z,32.50
2022-09-02T14:48:25.081Z,32.42
2022-09-02T14:51:02.886Z,32.34
2022-09-02T14:53:33.165Z,33.23
2022-09-02T14:56:03.062Z,33.02
2022-09-02T14:58:31.796Z,32.56
2022-09-02T15:01:02.911Z,33.43
2022-09-02T15:05:22.260Z,35.62
2022-09-02T15:07:51.122Z,36.39
2022-09-02T15:10:19.938Z,35.04
2022-09-02T15:12:52.378Z,33.96
2022-09-02T15:15:21.500Z,34.16
2022-09-02T15:17:50.314Z,33.36
2022-09-02T15:20:21.844Z,33.82
2022-09-02T15:22:52.539Z,33.51
2022-09-02T15:25:21.732Z,33.17
2022-09-02T15:27:50.693Z,32.25
2022-09-02T15:30:19.669Z,32.45
2022-09-02T15:32:48.274Z,32.93
2022-09-02T15:35:17.157Z,31.90
2022-09-02T15:37:51.359Z,32.65
2022-09-02T15:40:20.152Z,32.45
2022-09-02T15:42:48.594Z,32.71
2022-09-02T15:45:17.442Z,33.02
2022-09-02T15:47:45.860Z,31.95
2022-09-02T15:50:15.167Z,31.57
2022-09-02T15:52:46.330Z,32.09
2022-09-02T15:55:16.692Z,32.49
2022-09-02T15:57:45.628Z,32.45
2022-09-02T16:00:16.110Z,32.79
2022-09-02T16:02:44.980Z,33.51
2022-09-02T16:05:14.157Z,33.75
2022-09-02T16:07:42.814Z,32.54
2022-09-02T16:10:12.079Z,33.01
2022-09-02T16:12:42.238Z,33.13
2022-09-02T16:15:11.474Z,33.24
2022-09-02T16:17:41.246Z,32.95
2022-09-02T16:20:10.862Z,33.21
2022-09-02T16:22:39.400Z,33.52
2022-09-02T16:25:09.251Z,34.30
2022-09-02T16:27:56.622Z,34.69
2022-09-02T16:30:27.183Z,34.77
2022-09-02T16:32:55.782Z,35.28
2022-09-02T16:35:24.332Z,35.35
2022-09-02T16:37:57.614Z,35.79
2022-09-02T16:40:26.250Z,35.67
2022-09-02T16:42:57.600Z,35.92
2022-09-02T16:45:27.511Z,36.75
2022-09-02T16:47:56.055Z,36.92
2022-09-02T16:50:24.547Z,37.86
2022-09-02T16:52:54.243Z,37.32
2022-09-02T16:55:23.252Z,37.76
2022-09-02T16:57:54.611Z,38.47
2022-09-02T17:00:24.627Z,39.11
2022-09-02T17:05:21.139Z,39.33
2022-09-02T17:07:52.263Z,39.04
2022-09-02T17:10:20.725Z,39.75
2022-09-02T17:12:49.364Z,39.78
2022-09-02T17:15:18.033Z,40.10
2022-09-02T17:17:46.514Z,40.27
2022-09-02T17:20:15.019Z,41.06
2022-09-02T17:22:45.287Z,41.08
2022-09-02T17:25:14.479Z,42.42
2022-09-02T17:27:43.716Z,43.48
2022-09-02T17:30:15.174Z,44.47
2022-09-02T17:32:44.332Z,45.49
2022-09-02T17:35:13.731Z,46.88
2022-09-02T17:37:42.250Z,48.59
2022-09-02T17:40:34.579Z,49.72
2022-09-02T17:43:05.906Z,50.99
2022-09-02T17:45:41.675Z,51.89
2022-09-02T17:48:35.655Z,52.87
2022-09-02T17:51:07.107Z,54.06
2022-09-02T17:53:42.530Z,54.97
2022-09-02T17:56:53.595Z,56.00
2022-09-02T17:59:49.206Z,56.91
2022-09-02T18:02:48.946Z,57.79
2022-09-02T18:05:28.942Z,58.71
2022-09-02T18:08:13.361Z,59.52
2022-09-02T18:10:57.558Z,60.29
2022-09-02T18:13:42.173Z,60.61
2022-09-02T18:16:29.609Z,61.54
2022-09-02T18:19:14.094Z,61.95
2022-09-02T18:22:09.627Z,62.42
2022-09-02T18:24:59.058Z,63.09
2022-09-02T18:27:48.095Z,63.25
2022-09-02T18:30:27.475Z,63.42
2022-09-02T18:33:33.234Z,64.14
2022-09-02T18:36:18.373Z,64.52
2022-09-02T18:39:15.103Z,64.99
2022-09-02T18:42:07.404Z,65.40
2022-09-02T18:44:45.544Z,65.97
2022-09-02T18:47:22.081Z,66.39
2022-09-02T18:49:55.447Z,67.40
2022-09-02T18:52:30.309Z,67.82
2022-09-02T18:55:10.120Z,68.15
2022-09-02T18:57:50.229Z,68.81
2022-09-02T19:00:22.521Z,69.33
2022-09-02T19:05:25.050Z,70.88
2022-09-02T19:08:20.830Z,71.33
2022-09-02T19:10:49.630Z,71.91
2022-09-02T19:13:20.244Z,72.26
2022-09-02T19:15:48.986Z,72.82
2022-09-02T19:18:21.863Z,73.40
2022-09-02T19:20:52.084Z,73.62
2022-09-02T19:23:21.193Z,74.13
2022-09-02T19:25:50.130Z,74.62
2022-09-02T19:28:21.289Z,74.96
2022-09-02T19:30:53.297Z,75.50
2022-09-02T19:33:22.124Z,75.93
2022-09-02T19:35:54.295Z,76.19
2022-09-02T19:38:23.114Z,77.02
2022-09-02T19:40:52.653Z,77.53
2022-09-02T19:43:21.790Z,77.76
2022-09-02T19:45:51.617Z,78.16
2022-09-02T19:48:20.958Z,78.54
2022-09-02T19:50:51.641Z,79.11
2022-09-02T19:53:25.894Z,79.94
2022-09-02T19:55:56.170Z,80.59
2022-09-02T19:58:26.479Z,80.95
2022-09-02T20:00:57.149Z,81.00
2022-09-02T20:03:26.688Z,81.59
2022-09-02T20:05:56.620Z,82.08
2022-09-02T20:08:29.328Z,82.46
2022-09-02T20:11:03.003Z,82.66
2022-09-02T20:13:38.759Z,83.10
2022-09-02T20:16:19.562Z,83.22
2022-09-02T20:18:50.399Z,83.32
2022-09-02T20:21:25.547Z,83.50
2022-09-02T20:23:55.037Z,83.99
2022-09-02T20:26:37.618Z,84.03
2022-09-02T20:29:26.896Z,84.08
2022-09-02T20:32:14.936Z,84.09
2022-09-02T20:35:01.777Z,84.35
2022-09-02T20:37:50.700Z,84.35
2022-09-02T20:40:34.937Z,83.76
2022-09-02T20:43:35.176Z,83.30
2022-09-02T20:46:19.768Z,83.29
2022-09-02T20:49:10.061Z,83.41
2022-09-02T20:51:49.744Z,83.42
2022-09-02T20:54:37.567Z,83.30
2022-09-02T20:57:25.105Z,82.92
2022-09-02T21:00:07.166Z,82.80
2022-09-02T21:05:27.828Z,83.24
2022-09-02T21:08:05.125Z,83.59
2022-09-02T21:10:40.005Z,83.89
2022-09-02T21:13:15.464Z,84.31
2022-09-02T21:15:51.246Z,84.77
2022-09-02T21:18:31.307Z,85.18
2022-09-02T21:21:11.719Z,85.42
2022-09-02T21:23:48.109Z,85.36
2022-09-02T21:26:26.988Z,85.84
2022-09-02T21:29:05.530Z,86.17
2022-09-02T21:31:43.797Z,86.63
2022-09-02T21:34:22.607Z,86.91
2022-09-02T21:36:57.411Z,87.67
2022-09-02T21:39:32.769Z,88.13
2022-09-02T21:42:21.074Z,88.48
2022-09-02T21:45:13.253Z,88.86
2022-09-02T21:47:53.835Z,89.43
2022-09-02T21:50:30.103Z,89.90
2022-09-02T21:53:19.370Z,90.24
2022-09-02T21:56:06.994Z,90.65
2022-09-02T21:59:03.306Z,91.01
2022-09-02T22:01:48.636Z,91.61
2022-09-02T22:04:38.241Z,92.29
2022-09-02T22:07:19.427Z,93.10
2022-09-02T22:10:02.618Z,93.69
2022-09-02T22:12:39.697Z,94.45
2022-09-02T22:15:17.661Z,95.22
2022-09-02T22:17:55.646Z,96.12
2022-09-02T22:20:35.446Z,96.80
2022-09-02T22:23:15.645Z,97.43
2022-09-02T22:25:48.813Z,98.03
2022-09-02T22:28:25.965Z,98.59
2022-09-02T22:31:02.710Z,99.37
2022-09-02T22:33:36.841Z,99.95
2022-09-02T22:36:14.798Z,100.00
2022-09-02T22:38:49.484Z,100.00
2022-09-02T22:41:29.279Z,100.00
2022-09-02T22:44:04.344Z,100.00
2022-09-02T22:47:06.654Z,100.00
2022-09-02T22:50:04.244Z,100.00
2022-09-02T22:52:54.687Z,100.00
2022-09-02T22:55:39.970Z,100.00
2022-09-02T22:58:31.092Z,100.00
2022-09-02T23:01:15.914Z,100.00
2022-09-02T23:05:52.133Z,100.00
2022-09-02T23:08:23.529Z,100.00
2022-09-02T23:10:58.872Z,100.00
2022-09-02T23:13:48.701Z,100.00
2022-09-02T23:16:28.018Z,100.00
2022-09-02T23:19:14.961Z,100.00
2022-09-02T23:22:01.151Z,100.00
2022-09-02T23:24:46.229Z,100.00
2022-09-02T23:27:34.276Z,100.00
2022-09-02T23:30:03.138Z,100.00
2022-09-02T23:33:11.817Z,100.00
2022-09-02T23:35:52.145Z,100.00
2022-09-02T23:38:48.604Z,100.00
2022-09-02T23:41:18.567Z,100.00
2022-09-02T23:43:47.360Z,100.00
2022-09-02T23:46:32.214Z,100.00
2022-09-02T23:49:15.154Z,100.00
2022-09-02T23:51:57.209Z,100.00
2022-09-02T23:54:51.261Z,100.00
2022-09-02T23:57:46.194Z,100.00
